Middleboro, Massachusetts
Current Conditions -  °F | °C
As of 3:52 AM on Friday 19 Dec 2014 (Local Time) from KTAN Reporting Station
Few Clouds Few Clouds  
Wind Chill: 34°   Ceiling: Unl
Heat Index: 34°   Visibility: 10mi
Dew Point: 26°   Wind: 3mph
Humidity: 73%   Direction: 290°WNW
Pressure: 29.87"   Gusts: NA
Location:  41.89°N, 70.91°W
Report Text: KTAN 190852Z AUTO 29003KT 10SM FEW041 01/M03 A2987 RMK AO2 SLP114 T00111033 50002
Loading
Personal Weather Stations






























Interactive Weather Map New forecast layout! Learn more

10-Day Weather Forecast

Advertisements
Track Severe Weather on mobile